KMGJ/MGJ METAR and TAF weather

Enter ICAO airport designator
Station Type Date Time Source
KMGJ METAR 2019/09/21 04:54 UTC NOAA

KMGJ 210454Z AUTO 22003KT 10SM CLR 12/11 A3019 RMK AO2 SLP220 T01170106 402560033


Station Type Date Time Source
KMGJ Decoded METAR 2019/09/21 04:54 UTC NOAA

MONTGOMERY ORANGE CO AIRPORT, NY, United States (KMGJ) 41-31N 074-16W 108M
Sep 21, 2019 - 12:54 AM EDT / 2019.09.21 0454 UTC
Wind: from the SW (220 degrees) at 3 MPH (3 KT):0
Visibility: 10 mile(s):0
Sky conditions: clear
Temperature: 53.1 F (11.7 C)
Dew Point: 51.1 F (10.6 C)
Relative Humidity: 92%
Pressure (altimeter): 30.19 in. Hg (1022 hPa)
ob: KMGJ 210454Z AUTO 22003KT 10SM CLR 12/11 A3019 RMK AO2 SLP220 T01170106 402560033
cycle: 5

Station Type Date Time Source
KMGJ TAF UTC NOAA

Error!

Example: see airport list